createdAt,value
2022-09-20T04:42:35.357Z,8.60
2022-09-20T04:45:28.988Z,8.60
2022-09-20T04:48:42.259Z,8.60
2022-09-20T04:51:37.579Z,8.70
2022-09-20T04:54:53.427Z,8.70
2022-09-20T04:57:57.694Z,8.70
2022-09-20T05:00:40.301Z,8.70
2022-09-20T05:03:32.121Z,8.70
2022-09-20T05:06:24.018Z,8.70
2022-09-20T05:09:24.915Z,8.70
2022-09-20T05:12:15.760Z,8.70
2022-09-20T05:15:06.435Z,8.70
2022-09-20T05:17:46.049Z,8.70
2022-09-20T09:11:19.616Z,11.50
2022-09-20T09:13:53.276Z,11.70
2022-09-20T09:16:30.171Z,12.10
2022-09-20T09:19:33.902Z,12.30
2022-09-20T09:29:22.653Z,11.90
2022-09-20T09:31:52.281Z,12.00
2022-09-20T09:34:28.700Z,12.30
2022-09-20T09:36:57.676Z,12.60
2022-09-20T09:39:28.249Z,12.80
2022-09-20T09:56:41.445Z,11.90
2022-09-20T09:59:34.724Z,11.90
2022-09-20T10:02:19.286Z,12.00
2022-09-20T10:04:56.516Z,12.00
2022-09-20T10:07:31.327Z,12.40
2022-09-20T10:10:07.842Z,12.60
2022-09-20T10:12:53.159Z,12.90
2022-09-20T10:15:34.843Z,13.00
2022-09-20T10:18:18.461Z,12.90
2022-09-20T10:21:00.581Z,12.70
2022-09-20T10:30:58.493Z,12.90
2022-09-20T10:33:33.682Z,13.30
2022-09-20T10:36:26.972Z,13.70
2022-09-20T10:39:02.562Z,13.90
2022-09-20T10:42:02.676Z,14.30
2022-09-20T10:44:45.189Z,14.40
2022-09-20T10:47:18.121Z,14.60
2022-09-20T10:49:57.303Z,14.30
2022-09-20T10:52:41.003Z,14.20
2022-09-20T11:15:18.407Z,11.30
2022-09-20T11:17:53.882Z,11.60
2022-09-20T11:20:27.391Z,12.00
2022-09-20T11:23:00.664Z,12.60
2022-09-20T11:25:37.465Z,13.20
2022-09-20T11:28:15.654Z,13.70
2022-09-20T11:30:55.818Z,14.40
2022-09-20T11:33:28.093Z,14.90
2022-09-20T11:36:00.204Z,15.10
2022-09-20T11:38:34.275Z,14.50
2022-09-20T11:41:06.958Z,14.00
2022-09-20T11:43:40.591Z,13.50
2022-09-20T11:46:13.859Z,13.50
2022-09-20T11:48:46.594Z,13.40
2022-09-20T11:51:57.051Z,13.30
2022-09-20T11:54:48.762Z,13.30
2022-09-20T11:57:17.831Z,13.40
2022-09-20T11:59:54.304Z,13.90
2022-09-20T12:02:26.944Z,14.40
2022-09-20T12:04:56.663Z,14.50
2022-09-20T12:07:27.139Z,14.40
2022-09-20T12:09:58.223Z,14.10
2022-09-20T12:12:41.619Z,13.70
2022-09-20T12:15:25.159Z,13.50
2022-09-20T12:18:33.104Z,13.70
2022-09-20T12:21:06.053Z,13.60
2022-09-20T12:24:18.147Z,14.20
2022-09-20T12:26:47.838Z,15.50
2022-09-20T12:29:55.258Z,16.30
2022-09-20T12:32:43.911Z,15.80
2022-09-20T12:35:58.271Z,15.10
2022-09-20T12:39:03.514Z,14.40
2022-09-20T12:41:47.297Z,15.10
2022-09-20T12:44:37.698Z,16.10
2022-09-20T12:47:08.919Z,16.60
2022-09-20T12:50:07.910Z,16.20
2022-09-20T12:52:53.867Z,16.40
2022-09-20T12:55:49.860Z,16.50
2022-09-20T12:58:33.020Z,16.50
2022-09-20T13:01:31.460Z,16.40
2022-09-20T13:04:36.938Z,16.20
2022-09-20T13:07:44.245Z,15.70
2022-09-20T13:10:25.146Z,16.80
2022-09-20T13:13:02.800Z,17.80
2022-09-20T13:15:33.181Z,18.00
2022-09-20T13:18:03.083Z,17.90
2022-09-20T13:20:34.979Z,18.00
2022-09-20T13:23:06.309Z,18.00
2022-09-20T13:25:36.042Z,18.30
2022-09-20T13:28:11.264Z,17.60
2022-09-20T13:30:41.974Z,17.70
2022-09-20T13:33:23.183Z,18.30
2022-09-20T13:35:54.748Z,18.00
2022-09-20T13:38:25.253Z,19.00
2022-09-20T13:41:01.062Z,19.20
2022-09-20T13:43:34.132Z,19.20
2022-09-20T13:46:10.858Z,19.10
2022-09-20T13:48:39.251Z,19.10
2022-09-20T13:51:18.637Z,17.90
2022-09-20T13:53:47.884Z,16.50
2022-09-20T13:56:22.347Z,16.90
2022-09-20T13:58:52.757Z,17.80
2022-09-20T14:01:29.250Z,18.80
2022-09-20T14:04:08.184Z,19.20
2022-09-20T14:06:37.205Z,19.30
2022-09-20T14:09:11.262Z,19.70
2022-09-20T14:11:41.032Z,19.90
2022-09-20T14:14:13.213Z,20.10
2022-09-20T14:16:45.044Z,20.30
2022-09-20T14:19:16.311Z,20.20
2022-09-20T14:21:45.020Z,20.00
2022-09-20T14:24:32.504Z,20.20
2022-09-20T14:27:18.421Z,20.10
2022-09-20T14:29:49.344Z,19.20
2022-09-20T14:32:35.447Z,17.40
2022-09-20T14:35:07.198Z,16.30
2022-09-20T14:37:41.751Z,16.30
2022-09-20T14:40:21.475Z,16.60
2022-09-20T14:42:51.810Z,17.50
2022-09-20T14:45:26.670Z,18.80
2022-09-20T14:47:58.672Z,19.60
2022-09-20T14:50:30.649Z,20.00
2022-09-20T14:53:05.062Z,19.40
2022-09-20T14:55:37.072Z,19.40
2022-09-20T14:58:10.524Z,18.90
2022-09-20T15:00:51.868Z,18.80
2022-09-20T15:03:27.313Z,19.20
2022-09-20T15:05:55.580Z,19.10
2022-09-20T15:08:23.689Z,19.60
2022-09-20T15:10:51.875Z,18.90
2022-09-20T15:13:20.052Z,18.50
2022-09-20T15:15:53.683Z,19.00
2022-09-20T15:18:23.749Z,19.40
2022-09-20T15:20:52.125Z,19.30
2022-09-20T15:23:20.546Z,19.70
2022-09-20T15:25:52.422Z,19.50
2022-09-20T15:28:21.044Z,19.60
2022-09-20T15:30:52.217Z,19.50
2022-09-20T15:33:21.510Z,19.70
2022-09-20T15:35:50.013Z,19.90
2022-09-20T15:38:19.538Z,19.50
2022-09-20T15:40:49.623Z,19.40
2022-09-20T15:43:19.616Z,19.50
2022-09-20T15:45:51.857Z,19.30
2022-09-20T15:48:21.492Z,18.20
2022-09-20T15:51:03.564Z,18.40
2022-09-20T15:53:34.214Z,17.40
2022-09-20T15:56:03.524Z,18.70
2022-09-20T15:58:35.875Z,19.40
2022-09-20T16:01:08.211Z,20.00
2022-09-20T16:03:37.533Z,20.40
2022-09-20T16:06:08.198Z,20.30
2022-09-20T16:08:37.717Z,19.60
2022-09-20T16:11:06.703Z,20.30
2022-09-20T16:13:37.689Z,19.60
2022-09-20T16:16:08.670Z,20.10
2022-09-20T16:18:54.977Z,20.10
2022-09-20T16:21:23.508Z,20.10
2022-09-20T16:23:53.492Z,19.10
2022-09-20T16:26:23.804Z,18.50
2022-09-20T16:28:57.850Z,17.80
2022-09-20T16:31:39.881Z,18.10
2022-09-20T16:34:13.258Z,18.30
2022-09-20T16:36:43.331Z,18.20
2022-09-20T16:39:12.826Z,18.00
2022-09-20T16:41:40.850Z,18.40
2022-09-20T16:44:09.133Z,17.90
2022-09-20T16:46:38.540Z,16.80
2022-09-20T16:49:09.432Z,16.20
2022-09-20T16:51:39.492Z,16.40
2022-09-20T16:54:12.227Z,16.90
2022-09-20T16:56:42.590Z,16.30
2022-09-20T16:59:10.863Z,16.40
2022-09-20T17:01:41.207Z,16.20
2022-09-20T17:04:09.980Z,15.70
2022-09-20T17:06:39.047Z,15.10
2022-09-20T17:09:07.995Z,14.60
2022-09-20T17:11:37.786Z,14.10
2022-09-20T17:14:06.541Z,13.80
2022-09-20T17:16:36.176Z,13.60
2022-09-20T17:19:08.758Z,13.40
2022-09-20T17:21:38.836Z,13.20
2022-09-20T17:24:07.958Z,13.00
2022-09-20T17:26:38.355Z,12.90
2022-09-20T17:29:09.938Z,12.90
2022-09-20T17:31:39.446Z,12.80
2022-09-20T17:34:11.082Z,12.70
2022-09-20T17:36:41.718Z,12.60
2022-09-20T17:39:12.231Z,12.50
2022-09-20T17:41:40.874Z,12.40
2022-09-20T17:44:10.148Z,12.40
2022-09-20T17:46:40.040Z,12.30
2022-09-20T17:49:11.153Z,12.20
2022-09-20T17:51:41.083Z,12.20
2022-09-20T17:54:12.861Z,12.10
2022-09-20T17:56:43.486Z,12.00
2022-09-20T17:59:12.512Z,11.90
2022-09-20T18:01:41.428Z,11.90
2022-09-20T18:04:11.683Z,11.80
2022-09-20T18:06:42.597Z,11.70
2022-09-20T18:09:12.006Z,11.50
2022-09-20T18:11:41.652Z,11.40
2022-09-20T18:14:11.311Z,11.30
2022-09-20T18:16:39.701Z,11.30
2022-09-20T18:19:08.891Z,11.20
2022-09-20T18:21:40.978Z,11.20
2022-09-20T18:24:10.127Z,11.10
2022-09-20T18:26:39.390Z,11.10
2022-09-20T18:29:09.552Z,11.10
2022-09-20T18:31:39.108Z,11.10
2022-09-20T18:34:09.121Z,11.20
2022-09-20T18:36:40.156Z,11.20
2022-09-20T18:39:08.616Z,11.20
2022-09-20T18:41:38.072Z,11.20
2022-09-20T18:44:08.376Z,11.10
2022-09-20T18:46:38.875Z,11.10
2022-09-20T18:49:09.714Z,11.00
2022-09-20T18:51:40.255Z,11.00
2022-09-20T18:54:10.247Z,11.00
2022-09-20T18:56:39.745Z,11.00
2022-09-20T18:59:14.047Z,10.90
2022-09-20T19:02:36.396Z,10.90
2022-09-20T19:05:18.470Z,10.70
2022-09-20T19:07:57.855Z,10.80
2022-09-20T19:10:37.904Z,10.80
2022-09-20T19:13:12.370Z,10.80
2022-09-20T19:16:00.420Z,10.80
2022-09-20T19:18:41.925Z,10.70
2022-09-20T19:21:22.497Z,10.70
2022-09-20T19:24:06.148Z,10.50
2022-09-20T19:26:38.144Z,10.40
2022-09-20T19:29:15.840Z,10.30
2022-09-20T19:31:44.422Z,10.40
2022-09-20T19:34:18.794Z,10.40
2022-09-20T19:36:58.810Z,10.30
2022-09-20T19:39:41.195Z,10.30
2022-09-20T19:42:20.100Z,10.20
2022-09-20T19:44:58.205Z,10.20
2022-09-20T19:47:37.364Z,10.20
2022-09-20T19:50:15.855Z,10.10
2022-09-20T19:52:44.626Z,10.00
2022-09-20T19:55:15.626Z,9.90
2022-09-20T19:57:47.128Z,9.80
2022-09-20T20:00:17.463Z,9.80
2022-09-20T20:02:46.260Z,9.80
2022-09-20T20:05:16.590Z,9.80
2022-09-20T20:07:49.969Z,9.70
2022-09-20T20:10:28.959Z,9.60
2022-09-20T20:13:03.674Z,9.60
2022-09-20T20:15:44.902Z,9.60
2022-09-20T20:18:24.471Z,9.60
2022-09-20T20:20:56.705Z,9.60
2022-09-20T20:23:41.540Z,9.60
2022-09-20T20:26:17.713Z,9.50
2022-09-20T20:28:45.700Z,9.50
2022-09-20T20:31:14.250Z,9.60
2022-09-20T20:33:43.394Z,9.60
2022-09-20T20:36:12.372Z,9.60
2022-09-20T20:38:41.785Z,9.60
2022-09-20T20:41:13.970Z,9.60
2022-09-20T20:43:43.743Z,9.50
2022-09-20T20:46:14.266Z,9.50
2022-09-20T20:48:42.850Z,9.40
2022-09-20T20:51:12.781Z,9.30
2022-09-20T20:53:44.862Z,9.30
2022-09-20T20:56:15.866Z,9.40
2022-09-20T20:58:45.475Z,9.40
2022-09-20T21:01:15.453Z,9.40
2022-09-20T21:03:45.911Z,9.50
2022-09-20T21:06:14.995Z,9.40
2022-09-20T21:08:49.008Z,9.50
2022-09-20T21:11:21.911Z,9.50
2022-09-20T21:13:50.166Z,9.50
2022-09-20T21:16:20.670Z,9.40
2022-09-20T21:18:50.284Z,9.50
2022-09-20T21:21:19.755Z,9.50
2022-09-20T21:23:50.034Z,9.50
2022-09-20T21:26:20.703Z,9.60
2022-09-20T21:28:52.302Z,9.60
2022-09-20T21:31:21.821Z,9.60
2022-09-20T21:33:50.141Z,9.60
2022-09-20T21:36:20.376Z,9.60
2022-09-20T21:38:48.684Z,9.60
2022-09-20T21:41:18.271Z,9.70
2022-09-20T21:43:48.892Z,9.70
2022-09-20T21:46:19.052Z,9.70
2022-09-20T21:48:48.408Z,9.60
2022-09-20T21:51:18.509Z,9.60
2022-09-20T21:53:46.926Z,9.60
2022-09-20T21:56:17.508Z,9.60
2022-09-20T21:58:47.335Z,9.60
2022-09-20T22:01:16.833Z,9.50
2022-09-20T22:03:46.503Z,9.50
2022-09-20T22:06:17.311Z,9.40
2022-09-20T22:08:49.053Z,9.40
2022-09-20T22:11:17.830Z,9.40
2022-09-20T22:13:48.541Z,9.30
2022-09-20T22:16:18.049Z,9.20
2022-09-20T22:18:46.894Z,9.20
2022-09-20T22:21:16.937Z,9.20
2022-09-20T22:23:45.389Z,9.10
2022-09-20T22:26:14.944Z,9.10
2022-09-20T22:28:43.814Z,9.00
2022-09-20T22:31:15.331Z,9.00
2022-09-20T22:33:44.661Z,8.90
2022-09-20T22:36:14.283Z,8.90
2022-09-20T22:38:42.385Z,8.90
2022-09-20T22:41:11.169Z,8.80
2022-09-20T22:43:39.854Z,8.80
2022-09-20T22:46:09.463Z,8.70
2022-09-20T22:48:39.764Z,8.70
2022-09-20T22:51:09.670Z,8.70
2022-09-20T22:53:37.823Z,8.60
2022-09-20T22:56:07.091Z,8.50
2022-09-20T22:58:36.560Z,8.50
2022-09-20T23:01:06.382Z,8.40
2022-09-20T23:03:34.455Z,8.40
2022-09-20T23:06:04.239Z,8.40
2022-09-20T23:08:33.634Z,8.40
2022-09-20T23:11:02.861Z,8.40
2022-09-20T23:13:30.944Z,8.40
2022-09-20T23:15:59.476Z,8.40
2022-09-20T23:18:27.631Z,8.30
2022-09-20T23:21:03.333Z,8.30
2022-09-20T23:23:31.312Z,8.30
2022-09-20T23:26:07.506Z,8.20
2022-09-20T23:28:36.648Z,8.20
2022-09-20T23:31:06.002Z,8.10
2022-09-20T23:33:34.475Z,8.00
2022-09-20T23:36:08.371Z,8.10
2022-09-20T23:38:36.797Z,8.10
2022-09-20T23:41:05.480Z,8.00
2022-09-20T23:43:34.487Z,8.00
2022-09-20T23:46:02.766Z,8.00
2022-09-20T23:48:30.983Z,7.90
2022-09-20T23:50:59.285Z,7.90
2022-09-20T23:53:28.748Z,7.90
2022-09-20T23:55:56.781Z,7.80
2022-09-20T23:58:24.938Z,7.70
